Alexander Mills, North Carolina
Current Conditions -  °F | °C
As of 11:15 AM on Tuesday 21 Oct 2014 (Local Time) from KFQD Reporting Station
Clear Clear  
Wind Chill: 20°   Ceiling: Unl
Heat Index: 20°   Visibility: 10mi
Dew Point:   Wind: 13mph
Humidity: 50%   Direction: 300°WNW
Pressure: 29.96"   Gusts: 26mph
Location:  35.27°N, 81.8676°W
Report Text: KFQD 211515Z AUTO 30011G23KT 10SM CLR 20/09 A2996 RMK AO2 T01970089
Loading
Personal Weather Stations






























Interactive Weather Map
Tropical Storm Tracking
New forecast layout! Learn more

10-Day Weather Forecast

Advertisements
Track Severe Weather on mobile